Flight Track Log - Related Links

Times and Time Zones

All times are in EDT time to prevent confusion due to time zone crossing. See the SWA2624 flight status page for this flight to view local times or setup timezone preferences in your user account.

Time Position Orientation Groundspeed Altitude Reporting Facility
EDT Latitude Longitude Course Direction KTS MPH feet Rate Location/Type
Mon 09:18:57 AM 47.4353 -122.3103 176° South 146 168 1,500  Level Seattle Center
Mon 09:19:26 AM 47.4147 -122.3083 176° South 160 184 2,600 2,200 Climbing Seattle Center
Mon 09:20:27 AM 47.3508 -122.3083 180° South 237 273 4,800 2,678 Climbing Seattle Center
Mon 09:21:27 AM 47.2733 -122.3100 181° South 278 320 8,000 3,025 Climbing Seattle Center
Mon 09:22:28 AM 47.1892 -122.2844 168° South 324 373 10,900 3,124 Climbing Seattle Center
Mon 09:23:28 AM 47.1061 -122.2056 147° Southeast 358 412 14,300 3,421 Climbing Seattle Center
Mon 09:24:29 AM 47.0028 -122.1381 156° South 383 441 17,800 3,273 Climbing Seattle Center
Mon 09:25:29 AM 46.8956 -122.0789 159° South 407 468 20,900 2,926 Climbing Seattle Center
Mon 09:26:30 AM 46.7997 -121.9672 141° Southeast 439 505 23,700 2,727 Climbing Seattle Center
Mon 09:27:30 AM 46.6978 -121.8589 144° Southeast 454 522 26,400 2,479 Climbing Seattle Center
Mon 09:28:31 AM 46.5939 -121.7467 143° Southeast 467 537 28,700 2,066 Climbing Seattle Center
Mon 09:29:32 AM 46.4853 -121.6283 143° Southeast 486 559 30,600 1,785 Climbing Seattle Center
Mon 09:30:32 AM 46.3819 -121.5106 142° Southeast 501 577 32,300 1,785 Climbing Seattle Center
Mon 09:31:33 AM 46.2658 -121.3889 144° Southeast 513 590 34,200 1,918 Climbing Seattle Center
Mon 09:32:34 AM 46.1517 -121.2650 143° Southeast 513 590 36,200 2,083 Climbing Seattle Center
Mon 09:33:34 AM 46.0389 -121.1444 143° Southeast 508 585 38,400 1,983 Climbing Seattle Center
Mon 09:34:35 AM 45.9294 -121.0297 144° Southeast 495 570 40,200 1,289 Climbing Seattle Center
Mon 09:35:35 AM 45.8211 -120.9156 144° Southeast 484 557 41,000 397 Climbing Seattle Center
Mon 09:36:36 AM 45.6906 -120.7767 143° Southeast 489 563 41,000  Level Seattle Center
Mon 09:37:36 AM 45.5806 -120.6617 144° Southeast 490 564 41,000  Level Seattle Center
Mon 09:38:37 AM 45.4700 -120.5475 144° Southeast 492 566 41,000  Level Seattle Center
Mon 09:39:38 AM 45.3594 -120.4342 144° Southeast 492 566 41,000  Level Seattle Center
Mon 09:40:38 AM 45.2494 -120.3211 144° Southeast 489 563 41,000  Level Seattle Center
Mon 09:41:39 AM 45.1408 -120.2086 144° Southeast 487 560 41,000  Level Seattle Center
Mon 09:42:39 AM 45.0325 -120.0983 144° Southeast 484 557 41,000  Level Seattle Center
Mon 09:43:40 AM 44.9208 -119.9856 144° Southeast 485 558 41,000  Level Seattle Center
Mon 09:44:41 AM 44.8222 -119.8869 145° Southeast 485 558 41,000  Level Seattle Center
Mon 09:45:41 AM 44.7136 -119.7769 144° Southeast 484 557 41,000  Level Seattle Center
Mon 09:46:42 AM 44.6008 -119.6781 148° Southeast 483 556 41,000  Level Seattle Center
Mon 09:47:42 AM 44.4542 -119.5883 156° South 479 551 41,000  Level Seattle Center
Mon 09:48:43 AM 44.3428 -119.4817 146° Southeast 488 562 41,000  Level Seattle Center
Mon 09:49:44 AM 44.2353 -119.3667 143° Southeast 488 562 41,000  Level Seattle Center
Mon 09:50:44 AM 44.1267 -119.2547 143° Southeast 486 559 41,000  Level Seattle Center
Mon 09:51:45 AM 44.0175 -119.1411 143° Southeast 491 565 41,000  Level Seattle Center
Mon 09:52:46 AM 43.9100 -119.0292 143° Southeast 486 559 41,000  Level Seattle Center
Mon 09:53:46 AM 43.7997 -118.9167 144° Southeast 483 556 41,000  Level Seattle Center
Mon 09:54:47 AM 43.6972 -118.8114 143° Southeast 481 554 41,000  Level Seattle Center
Mon 09:55:47 AM 43.5783 -118.6894 143° Southeast 479 551 41,000  Level Seattle Center
Mon 09:56:48 AM 43.4764 -118.5842 143° Southeast 479 551 41,000  Level Seattle Center
Mon 09:57:48 AM 43.3739 -118.4806 144° Southeast 478 550 41,000  Level Seattle Center
Mon 09:58:56 AM 43.2472 -118.3500 143° Southeast 481 554 41,000  Level Salt Lake Center
Mon 09:59:57 AM 43.1344 -118.2353 143° Southeast 483 556 41,000  Level Salt Lake Center
Mon 10:00:59 AM 43.0300 -118.1319 144° Southeast 480 552 41,000 -488 Level Salt Lake Center
Mon 10:02:00 AM 42.9278 -118.0292 144° Southeast 479 551 40,000 -984 Descending Salt Lake Center
Mon 10:03:01 AM 42.8092 -117.9103 144° Southeast 477 549 39,000 -488 Descending Salt Lake Center
Mon 10:04:03 AM 42.7094 -117.8119 144° Southeast 468 539 39,000  Level Salt Lake Center
Mon 10:05:04 AM 42.5914 -117.6967 144° Southeast 468 539 39,000  Level Salt Lake Center
Mon 10:06:06 AM 42.4925 -117.5986 144° Southeast 466 536 39,000  Level Salt Lake Center
Mon 10:07:07 AM 42.3942 -117.5031 144° Southeast 457 526 39,000  Level Salt Lake Center
Mon 10:08:08 AM 42.2792 -117.3903 144° Southeast 455 524 39,000  Level Salt Lake Center
Mon 10:09:10 AM 42.1794 -117.2942 144° Southeast 460 529 39,000  Level Salt Lake Center
Mon 10:10:11 AM 42.0631 -117.1822 144° Southeast 460 529 39,000  Level Salt Lake Center
Mon 10:11:12 AM 41.9592 -117.0811 144° Southeast 464 534 39,000  Level Salt Lake Center
Mon 10:12:14 AM 41.8494 -116.9772 145° Southeast 461 531 39,000  Level Salt Lake Center
Mon 10:13:15 AM 41.7489 -116.8822 145° Southeast 459 528 39,000  Level Salt Lake Center
Mon 10:14:16 AM 41.6486 -116.7897 145° Southeast 451 519 39,000  Level Salt Lake Center
Mon 10:15:18 AM 41.5331 -116.6778 144° Southeast 455 524 39,000  Level Salt Lake Center
Mon 10:16:19 AM 41.4339 -116.5856 145° Southeast 455 524 39,000  Level Salt Lake Center
Mon 10:17:21 AM 41.3353 -116.4936 145° Southeast 453 521 39,000  Level Salt Lake Center
Mon 10:18:22 AM 41.2197 -116.3867 145° Southeast 451 519 39,000  Level Salt Lake Center
Mon 10:19:23 AM 41.1147 -116.2872 144° Southeast 457 526 39,000  Level Salt Lake Center
Mon 10:20:25 AM 41.0075 -116.1878 145° Southeast 455 524 39,000  Level Salt Lake Center
Mon 10:21:26 AM 40.9042 -116.0919 145° Southeast 454 522 39,000  Level Salt Lake Center
Mon 10:22:28 AM 40.8031 -115.9969 145° Southeast 452 520 39,000  Level Salt Lake Center
Mon 10:23:29 AM 40.6981 -115.9017 145° Southeast 451 519 39,000  Level Salt Lake Center
Mon 10:24:30 AM 40.5908 -115.8056 146° Southeast 462 532 39,000  Level Salt Lake Center
Mon 10:25:32 AM 40.4850 -115.7100 146° Southeast 463 533 39,000  Level Salt Lake Center
Mon 10:26:33 AM 40.3786 -115.6128 145° Southeast 465 535 39,000  Level Salt Lake Center
Mon 10:27:35 AM 40.2508 -115.4978 146° Southeast 467 537 39,000  Level Salt Lake Center
Mon 10:28:36 AM 40.1483 -115.4061 146° Southeast 454 522 39,000  Level Salt Lake Center
Mon 10:29:38 AM 40.0425 -115.3114 146° Southeast 458 527 39,000  Level Salt Lake Center
Mon 10:30:39 AM 39.9325 -115.2147 146° Southeast 461 531 39,000  Level Salt Lake Center
Mon 10:31:41 AM 39.8275 -115.1211 146° Southeast 459 528 39,000  Level Salt Lake Center
Mon 10:32:42 AM 39.7269 -115.0311 145° Southeast 458 527 39,000  Level Salt Lake Center
Mon 10:33:44 AM 39.6214 -114.9392 146° Southeast 459 528 39,000  Level Salt Lake Center
Mon 10:34:45 AM 39.4958 -114.8286 146° Southeast 458 527 39,000  Level Salt Lake Center
Mon 10:35:47 AM 39.4058 -114.7519 147° Southeast 458 527 39,000  Level Salt Lake Center
Mon 10:36:48 AM 39.2811 -114.6422 146° Southeast 453 521 39,000  Level Salt Lake Center
Mon 10:37:50 AM 39.1750 -114.5506 146° Southeast 458 527 39,000  Level Salt Lake Center
Mon 10:38:51 AM 39.0703 -114.4575 145° Southeast 458 527 39,000  Level Salt Lake Center
Mon 10:39:53 AM 38.9636 -114.3683 147° Southeast 458 527 39,000  Level Salt Lake Center
Mon 10:40:54 AM 38.8578 -114.2758 146° Southeast 460 529 39,000  Level Salt Lake Center
Mon 10:41:56 AM 38.7522 -114.1864 147° Southeast 457 526 39,000  Level Salt Lake Center
Mon 10:42:57 AM 38.6450 -114.0956 147° Southeast 461 531 39,000  Level Salt Lake Center
Mon 10:43:59 AM 38.5394 -114.0061 146° Southeast 457 526 39,000  Level Salt Lake Center
Mon 10:45:00 AM 38.4108 -113.9017 148° Southeast 458 527 39,000  Level Salt Lake Center
Mon 10:46:02 AM 38.2989 -113.8297 153° Southeast 451 519 39,000  Level Salt Lake Center
Mon 10:47:03 AM 38.1872 -113.7558 153° Southeast 453 521 39,000  Level Salt Lake Center
Mon 10:48:05 AM 38.0761 -113.6828 153° Southeast 451 519 39,000  Level Salt Lake Center
Mon 10:49:06 AM 37.9647 -113.6094 153° Southeast 452 520 39,000  Level Salt Lake Center
Mon 10:50:08 AM 37.8531 -113.5347 152° Southeast 455 524 39,000  Level Salt Lake Center
Mon 10:51:09 AM 37.7400 -113.4608 153° Southeast 459 528 39,000  Level Salt Lake Center
Mon 10:52:11 AM 37.6042 -113.3731 153° Southeast 461 531 39,000  Level Salt Lake Center
Mon 10:53:12 AM 37.4917 -113.2989 152° Southeast 460 529 39,000  Level Salt Lake Center
Mon 10:54:14 AM 37.3778 -113.2264 153° Southeast 462 532 39,000 -45 Level Salt Lake Center
Mon 10:55:25 AM 37.2417 -113.1372 152° Southeast 460 529 38,900 -496 Descending Los Angeles Center
Mon 10:56:27 AM 37.1294 -113.0642 153° Southeast 457 526 37,900 -919 Descending Los Angeles Center
Mon 10:57:29 AM 37.0158 -112.9906 153° Southeast 460 529 37,000 -919 Descending Los Angeles Center
Mon 10:58:31 AM 36.9019 -112.9175 153° Southeast 461 531 36,000 -484 Descending Los Angeles Center
Mon 10:59:33 AM 36.7633 -112.8300 153° Southeast 464 534 36,000 -146 Level Los Angeles Center
Mon 11:00:34 AM 36.6483 -112.7569 153° Southeast 464 534 35,700 -697 Descending Los Angeles Center
Mon 11:02:08 AM 36.4767 -112.6483 153° Southeast 472 543 34,200 -956 Descending Albuquerque Center
Mon 11:02:27 AM 36.4389 -112.6244 153° Southeast 470 541 33,900 -900 Descending Los Angeles Center
Mon 11:03:28 AM 36.3236 -112.5500 153° Southeast 468 539 33,000 -432 Descending Los Angeles Center
Mon 11:04:32 AM 36.2094 -112.4778 153° Southeast 464 534 33,000  Level Los Angeles Center
Mon 11:05:33 AM 36.1172 -112.4206 153° Southeast 464 534 33,000  Level Los Angeles Center
Mon 11:06:36 AM 35.9464 -112.4056 176° South 441 507 33,000  Level Los Angeles Center
Mon 11:07:37 AM 35.8422 -112.4136 184° South 436 502 33,000 -843 Level Los Angeles Center
Mon 11:08:37 AM 35.7017 -112.4189 182° South 424 488 31,300 -1,918 Descending Los Angeles Center
Mon 11:09:39 AM 35.5886 -112.4242 182° South 411 473 29,100 -1,095 Descending Los Angeles Center
Mon 11:10:43 AM 35.4786 -112.4347 184° South 400 460 29,000 -44 Descending Los Angeles Center
Mon 11:11:56 AM 35.3664 -112.4319 179° South 402 463 29,000  Level Los Angeles Center
Mon 11:12:26 AM 35.2744 -112.4119 170° South 412 474 29,000  Level Albuquerque Center
Mon 11:13:28 AM 35.1614 -112.3853 169° South 413 475 29,000  Level Albuquerque Center
Mon 11:14:29 AM 35.0492 -112.3581 169° South 411 473 29,000  Level Albuquerque Center
Mon 11:15:31 AM 34.9381 -112.3336 170° South 408 470 29,000 -48 Level Albuquerque Center
Mon 11:16:33 AM 34.8269 -112.3081 169° South 407 468 28,900 -1,210 Descending Albuquerque Center
Mon 11:17:35 AM 34.7047 -112.2792 169° South 402 463 26,500 -2,177 Descending Albuquerque Center
Mon 11:18:37 AM 34.6008 -112.2556 169° South 388 447 24,400 -1,935 Descending Albuquerque Center
Mon 11:19:39 AM 34.5006 -112.2328 169° South 374 430 22,500 -1,839 Descending Albuquerque Center
Mon 11:20:41 AM 34.4036 -112.2100 169° South 361 415 20,600 -1,839 Descending Albuquerque Center
Mon 11:21:43 AM 34.3119 -112.1892 169° South 344 396 18,700 -2,032 Descending Albuquerque Center
Mon 11:22:45 AM 34.2050 -112.1631 169° South 330 380 16,400 -1,839 Descending Albuquerque Center
Mon 11:23:47 AM 34.1197 -112.1447 170° South 313 360 14,900 -1,366 Descending Albuquerque Center
Mon 11:24:48 AM 34.0392 -112.1406 178° South 288 331 13,600 -1,366 Descending Albuquerque Center
Mon 11:25:50 AM 33.9614 -112.1497 186° South 283 326 12,100 -1,500 Descending Albuquerque Center
Mon 11:26:52 AM 33.8853 -112.1600 186° South 278 320 10,500 -1,500 Descending Albuquerque Center
Mon 11:27:54 AM 33.7944 -112.1803 191° South 279 321 9,000 -1,258 Descending Albuquerque Center
Mon 11:28:56 AM 33.7228 -112.1950 190° South 266 306 7,900 -976 Descending Albuquerque Center
Mon 11:29:57 AM 33.6486 -112.1994 183° South 268 308 7,000 -976 Descending Albuquerque Center
Mon 11:30:59 AM 33.5733 -112.2047 183° South 271 312 5,900 -1,306 Descending Albuquerque Center
Mon 11:32:01 AM 33.5008 -112.2081 182° South 263 303 4,300 -1,403 Descending Albuquerque Center
Mon 11:33:03 AM 33.4433 -112.1667 149° Southeast 266 306 3,000 -706 Descending Albuquerque Center
Mon 11:33:43 AM 33.4500 -112.1000 83° East 188 216 3,100 -667 Climbing Phoenix TRACON
Mon 11:34:42 AM 33.4500 -112.0667 90° East 152 175 1,900 -1,220 Descending Phoenix TRACON

Login

Don't have an account? Register now (free) for customized features, flight alerts, and more!